Time;durP1;ratioP1;P1;durP2;ratioP2;P2;SDS_P1;SDS_P2;PMS_P1;PMS_P2;Temp;Humidity;BMP_temperature;BMP_pressure;BME280_temperature;BME280_humidity;BME280_pressure;Samples;Min_cycle;Max_cycle;Signal;HPM_P1;HPM_P2
2021/08/23 00:01:51;;;;;;;5.77;5.27;;;15.30;99.90;;;;;;4992709;28;20211;-60
2021/08/23 00:04:17;;;;;;;5.77;4.97;;;15.30;99.90;;;;;;4993080;28;20604;-60
2021/08/23 00:06:43;;;;;;;5.37;4.90;;;15.30;99.90;;;;;;4992870;28;20275;-60
2021/08/23 00:09:08;;;;;;;5.63;5.13;;;15.50;99.90;;;;;;4992580;28;20669;-60
2021/08/23 00:11:34;;;;;;;6.57;5.90;;;15.50;99.90;;;;;;4992711;28;20680;-60
2021/08/23 00:14:00;;;;;;;5.60;5.10;;;15.50;99.90;;;;;;4992217;28;20175;-60
2021/08/23 00:16:25;;;;;;;7.03;6.07;;;15.50;99.90;;;;;;4992744;28;20179;-61
2021/08/23 00:18:51;;;;;;;7.27;5.00;;;15.50;99.90;;;;;;4992632;28;20241;-60
2021/08/23 00:21:25;;;;;;;6.53;5.77;;;15.50;99.90;;;;;;4992716;28;20546;-61
2021/08/23 00:24:36;;;;;;;7.07;5.40;;;15.40;99.90;;;;;;4992711;28;20422;-60
2021/08/23 00:26:37;;;;;;;6.13;4.90;;;15.40;99.90;;;;;;4982056;28;20435;-61
2021/08/23 00:29:02;;;;;;;5.77;5.13;;;15.30;99.90;;;;;;4992304;28;20418;-60
2021/08/23 00:31:28;;;;;;;5.80;5.30;;;15.40;99.90;;;;;;4992445;28;20207;-60
2021/08/23 00:33:53;;;;;;;9.03;5.47;;;15.40;99.90;;;;;;4992609;28;20540;-61
2021/08/23 00:36:19;;;;;;;5.53;4.67;;;15.40;99.90;;;;;;4992583;28;20175;-60
2021/08/23 00:38:45;;;;;;;5.67;5.13;;;15.40;99.90;;;;;;4992226;28;20174;-61
2021/08/23 00:41:10;;;;;;;4.90;4.37;;;15.30;99.90;;;;;;4992395;28;20184;-60
2021/08/23 00:43:35;;;;;;;6.30;5.07;;;15.40;99.90;;;;;;4992072;28;20186;-60
2021/08/23 00:46:03;;;;;;;5.30;4.80;;;15.40;99.90;;;;;;4992406;28;20183;-60
2021/08/23 00:48:30;;;;;;;6.20;4.63;;;15.40;99.90;;;;;;4995775;28;20195;-60
2021/08/23 00:50:55;;;;;;;5.83;4.93;;;15.40;99.90;;;;;;4996442;28;20826;-61
2021/08/23 00:53:21;;;;;;;6.87;5.80;;;15.40;99.90;;;;;;4994734;28;20451;-60
2021/08/23 00:55:48;;;;;;;6.27;5.23;;;15.40;99.90;;;;;;4996478;28;20175;-60
2021/08/23 00:58:15;;;;;;;5.70;5.13;;;15.40;99.90;;;;;;4996472;28;20429;-61
2021/08/23 01:00:44;;;;;;;6.37;4.70;;;15.30;99.90;;;;;;4996182;28;20802;-60
2021/08/23 01:03:15;;;;;;;4.93;4.50;;;15.30;99.90;;;;;;4996070;28;20838;-60
2021/08/23 01:05:43;;;;;;;5.90;5.40;;;15.30;99.90;;;;;;4996184;28;20418;-60
2021/08/23 01:08:36;;;;;;;6.70;5.00;;;15.20;99.90;;;;;;4996157;28;20418;-61
2021/08/23 01:11:04;;;;;;;6.20;5.63;;;15.20;99.90;;;;;;4995991;28;20486;-60
2021/08/23 01:13:31;;;;;;;5.47;4.97;;;15.10;99.90;;;;;;4994704;28;20422;-60
2021/08/23 01:15:56;;;;;;;5.73;5.10;;;15.10;99.90;;;;;;4995951;28;20481;-61
2021/08/23 01:18:23;;;;;;;8.83;5.27;;;15.10;99.90;;;;;;4995669;28;20939;-61
2021/08/23 01:20:50;;;;;;;6.73;4.57;;;15.00;99.90;;;;;;4995834;28;20672;-60
2021/08/23 01:23:19;;;;;;;5.37;4.87;;;15.00;99.90;;;;;;4995855;28;20435;-61
2021/08/23 01:25:47;;;;;;;5.67;5.17;;;15.00;99.90;;;;;;4995965;28;20410;-60
2021/08/23 01:28:27;;;;;;;4.97;4.57;;;15.00;99.90;;;;;;4995695;28;20472;-60
2021/08/23 01:31:11;;;;;;;5.40;4.90;;;15.10;99.90;;;;;;4995465;28;20520;-61
2021/08/23 01:33:37;;;;;;;6.70;5.00;;;15.10;99.90;;;;;;4995854;28;20464;-60
2021/08/23 01:36:03;;;;;;;5.17;4.67;;;15.20;99.90;;;;;;4995546;28;21003;-61
2021/08/23 01:38:29;;;;;;;5.80;4.90;;;15.20;99.90;;;;;;4995315;28;20418;-60
2021/08/23 01:41:03;;;;;;;6.53;4.70;;;15.30;99.90;;;;;;4995579;28;20433;-60
2021/08/23 01:43:29;;;;;;;5.00;4.60;;;15.30;99.90;;;;;;4994795;28;20181;-60
2021/08/23 01:45:54;;;;;;;4.67;4.23;;;15.40;99.90;;;;;;4995390;28;20418;-60
2021/08/23 01:48:20;;;;;;;4.27;3.87;;;15.40;99.90;;;;;;4995282;28;20171;-61
2021/08/23 01:50:47;;;;;;;5.77;4.23;;;15.40;99.90;;;;;;4995167;28;20179;-60
2021/08/23 01:53:15;;;;;;;6.47;4.00;;;15.40;99.90;;;;;;4995269;28;20241;-62
2021/08/23 01:55:40;;;;;;;5.13;4.50;;;15.50;99.90;;;;;;4995282;28;20451;-62
2021/08/23 01:58:06;;;;;;;10.77;4.60;;;15.50;99.90;;;;;;4994974;28;20797;-61
2021/08/23 02:00:31;;;;;;;6.67;4.83;;;15.50;99.90;;;;;;4994775;28;20168;-61
2021/08/23 02:02:57;;;;;;;5.27;4.50;;;15.50;99.90;;;;;;4994973;28;20215;-62
2021/08/23 02:05:22;;;;;;;4.30;4.00;;;15.60;99.90;;;;;;4995066;28;20182;-61
2021/08/23 02:07:48;;;;;;;4.30;3.90;;;15.70;99.90;;;;;;4995060;28;20167;-61
2021/08/23 02:10:16;;;;;;;5.10;4.47;;;15.60;99.90;;;;;;4994739;28;20684;-61
2021/08/23 02:12:41;;;;;;;6.83;4.50;;;15.60;99.90;;;;;;4994340;28;20210;-61
2021/08/23 02:15:07;;;;;;;4.80;4.40;;;15.60;99.90;;;;;;4994834;28;20802;-62
2021/08/23 02:17:33;;;;;;;5.10;4.63;;;15.40;99.90;;;;;;4994991;28;20172;-62
2021/08/23 02:19:58;;;;;;;5.47;5.00;;;15.40;99.90;;;;;;4994548;28;20430;-63
2021/08/23 02:22:24;;;;;;;6.83;4.73;;;15.30;99.90;;;;;;4994709;28;20201;-61
2021/08/23 02:24:49;;;;;;;6.10;4.00;;;15.40;99.90;;;;;;4994785;28;20544;-62
2021/08/23 02:27:15;;;;;;;4.90;4.50;;;15.30;99.90;;;;;;4994659;28;20177;-62
2021/08/23 02:29:40;;;;;;;8.60;4.33;;;15.30;99.90;;;;;;4994307;28;20539;-61
2021/08/23 02:32:06;;;;;;;5.63;4.03;;;15.30;99.90;;;;;;4994546;28;20207;-61
2021/08/23 02:34:32;;;;;;;3.80;3.50;;;15.30;99.90;;;;;;4994605;28;20176;-62
2021/08/23 02:36:57;;;;;;;5.20;4.20;;;15.30;99.90;;;;;;4994488;28;20180;-61
2021/08/23 02:39:23;;;;;;;6.10;4.80;;;15.20;99.90;;;;;;4994206;28;20542;-61
2021/08/23 02:41:53;;;;;;;4.77;4.37;;;15.20;99.90;;;;;;4994263;28;20198;-62
2021/08/23 02:44:22;;;;;;;7.30;4.40;;;15.20;99.90;;;;;;4993341;28;20171;-62
2021/08/23 02:46:48;;;;;;;5.30;4.30;;;15.10;99.90;;;;;;4994372;28;20458;-61
2021/08/23 02:49:16;;;;;;;5.33;4.77;;;15.10;99.90;;;;;;4994056;28;20460;-61
2021/08/23 02:51:45;;;;;;;4.43;4.03;;;15.10;99.90;;;;;;4994178;28;20458;-61
2021/08/23 02:54:11;;;;;;;4.97;4.20;;;15.00;99.90;;;;;;4994174;28;20438;-61
2021/08/23 02:56:37;;;;;;;5.17;4.70;;;15.00;99.90;;;;;;4994220;28;20920;-62
2021/08/23 02:59:03;;;;;;;5.97;4.53;;;15.00;99.90;;;;;;4993802;28;20510;-61
2021/08/23 03:01:29;;;;;;;7.00;5.30;;;15.10;99.90;;;;;;4993880;28;20578;-61
2021/08/23 03:03:54;;;;;;;5.37;4.30;;;15.20;99.90;;;;;;4994058;28;20179;-61
2021/08/23 03:06:20;;;;;;;6.33;4.77;;;15.20;99.90;;;;;;4993966;28;20242;-61
2021/08/23 03:08:45;;;;;;;5.87;5.37;;;15.30;99.90;;;;;;4993624;28;20595;-61
2021/08/23 03:11:13;;;;;;;7.17;4.80;;;15.30;99.90;;;;;;4993149;28;20711;-61
2021/08/23 03:13:42;;;;;;;4.87;4.40;;;15.20;99.90;;;;;;4993430;28;20171;-62
2021/08/23 03:16:08;;;;;;;4.90;4.50;;;15.20;99.90;;;;;;4994076;28;20422;-62
2021/08/23 03:18:34;;;;;;;7.50;5.70;;;15.30;99.90;;;;;;4992834;28;20794;-61
2021/08/23 03:21:00;;;;;;;5.53;4.90;;;15.40;99.90;;;;;;4994168;28;20426;-62
2021/08/23 03:23:26;;;;;;;4.77;4.23;;;15.40;99.90;;;;;;4994335;28;20258;-61
2021/08/23 03:25:52;;;;;;;4.93;4.40;;;15.50;99.90;;;;;;4994124;28;20427;-63
2021/08/23 03:28:17;;;;;;;4.73;4.30;;;15.50;99.90;;;;;;4993846;28;20824;-62
2021/08/23 03:30:43;;;;;;;6.40;4.80;;;15.40;99.90;;;;;;4993877;28;20194;-62
2021/08/23 03:33:09;;;;;;;5.03;4.17;;;15.40;99.90;;;;;;4993939;28;20199;-62
2021/08/23 03:35:35;;;;;;;8.50;5.20;;;15.30;99.90;;;;;;4993889;28;20255;-63
2021/08/23 03:38:02;;;;;;;4.10;3.70;;;15.20;99.90;;;;;;4993348;28;20522;-63
2021/08/23 03:40:28;;;;;;;5.73;4.60;;;15.20;99.90;;;;;;4993116;28;20226;-63
2021/08/23 03:42:54;;;;;;;4.80;4.40;;;15.20;99.90;;;;;;4992847;28;20449;-62
2021/08/23 03:45:19;;;;;;;9.90;3.90;;;15.30;99.90;;;;;;4993222;28;20423;-62
2021/08/23 03:47:45;;;;;;;4.23;3.93;;;15.30;99.90;;;;;;4993283;28;20180;-62
2021/08/23 03:50:10;;;;;;;5.30;4.90;;;15.20;99.90;;;;;;4992869;28;20175;-63
2021/08/23 03:52:36;;;;;;;4.00;3.63;;;15.30;99.90;;;;;;4992976;28;20583;-62
2021/08/23 03:55:03;;;;;;;6.93;4.80;;;15.30;99.90;;;;;;4993138;28;20171;-62
2021/08/23 03:57:32;;;;;;;6.70;5.60;;;15.30;99.90;;;;;;4993091;28;20195;-62
2021/08/23 03:59:58;;;;;;;4.20;3.90;;;15.30;99.90;;;;;;4992689;28;20414;-63
2021/08/23 04:02:24;;;;;;;6.33;4.60;;;15.30;99.90;;;;;;5024501;23;20477;-60
2021/08/23 04:04:49;;;;;;;4.43;4.03;;;15.20;99.90;;;;;;5012453;28;20426;-60
2021/08/23 04:07:15;;;;;;;5.10;4.70;;;15.20;99.90;;;;;;5012641;28;20205;-61
2021/08/23 04:09:40;;;;;;;5.27;4.87;;;15.30;99.90;;;;;;5012241;28;20196;-61
2021/08/23 04:12:06;;;;;;;5.90;5.30;;;15.20;99.90;;;;;;5012279;28;20234;-61
2021/08/23 04:14:32;;;;;;;6.03;5.53;;;15.20;99.90;;;;;;5012468;28;20250;-60
2021/08/23 04:16:58;;;;;;;5.10;4.70;;;15.20;99.90;;;;;;5012578;28;20429;-60
2021/08/23 04:19:23;;;;;;;4.53;4.10;;;15.20;99.90;;;;;;5012162;28;20167;-61
2021/08/23 04:21:49;;;;;;;4.63;4.07;;;15.20;99.90;;;;;;5011348;28;20438;-61
2021/08/23 04:24:14;;;;;;;4.93;4.60;;;15.30;99.90;;;;;;5012335;28;20183;-61
2021/08/23 04:26:40;;;;;;;6.03;4.73;;;15.30;99.90;;;;;;5012244;28;20178;-58
2021/08/23 04:29:05;;;;;;;4.50;4.10;;;15.30;99.90;;;;;;5011949;28;20175;-61
2021/08/23 04:31:31;;;;;;;5.60;4.03;;;15.30;99.90;;;;;;5012039;28;20711;-61
2021/08/23 04:33:57;;;;;;;4.50;3.90;;;15.30;99.90;;;;;;5012348;28;20246;-60
2021/08/23 04:36:23;;;;;;;6.47;4.23;;;15.40;99.90;;;;;;5012239;28;20163;-61
2021/08/23 04:38:49;;;;;;;4.27;3.87;;;15.40;99.90;;;;;;5011973;28;20429;-60
2021/08/23 04:41:14;;;;;;;4.27;3.97;;;15.50;99.90;;;;;;5012063;28;20644;-61
2021/08/23 04:43:40;;;;;;;6.83;4.30;;;15.60;99.90;;;;;;5012057;28;20283;-58
2021/08/23 04:46:05;;;;;;;4.10;3.70;;;15.60;99.90;;;;;;5012259;28;20257;-60
2021/08/23 04:48:31;;;;;;;9.23;7.00;;;15.60;99.90;;;;;;5011816;28;20655;-60
2021/08/23 04:50:56;;;;;;;9.33;4.67;;;15.50;99.90;;;;;;5012009;28;20597;-61
2021/08/23 04:53:22;;;;;;;5.40;4.00;;;15.60;99.90;;;;;;5012013;28;20613;-61
2021/08/23 04:55:47;;;;;;;4.10;3.80;;;15.50;99.90;;;;;;5010704;28;20527;-61
2021/08/23 04:58:13;;;;;;;6.80;4.37;;;15.50;99.90;;;;;;5011977;28;20620;-61
2021/08/23 05:00:38;;;;;;;5.03;4.30;;;15.40;99.90;;;;;;5011818;28;20175;-61
2021/08/23 05:03:06;;;;;;;5.90;5.37;;;15.40;99.90;;;;;;5011835;28;20565;-60
2021/08/23 05:05:31;;;;;;;5.30;4.87;;;15.40;99.90;;;;;;5011985;28;20636;-61
2021/08/23 05:07:57;;;;;;;7.83;4.30;;;15.30;99.90;;;;;;5011980;28;20479;-61
2021/08/23 05:10:22;;;;;;;8.33;5.23;;;15.30;99.90;;;;;;5011567;28;20686;-61
2021/08/23 05:12:48;;;;;;;8.10;6.30;;;15.20;99.90;;;;;;5011831;28;20242;-61
2021/08/23 05:15:13;;;;;;;6.17;5.50;;;15.10;99.90;;;;;;5011888;28;20282;-61
2021/08/23 05:17:39;;;;;;;7.37;5.53;;;15.10;99.90;;;;;;5011868;28;20538;-60
2021/08/23 05:20:05;;;;;;;6.30;5.70;;;15.10;99.90;;;;;;5011523;28;20375;-60
2021/08/23 05:22:31;;;;;;;5.87;5.30;;;15.20;99.90;;;;;;5011781;28;20682;-59
2021/08/23 05:24:56;;;;;;;6.63;5.20;;;15.20;99.90;;;;;;5012088;28;20425;-60
2021/08/23 05:27:22;;;;;;;6.63;4.90;;;15.20;99.90;;;;;;5011700;28;20176;-58
2021/08/23 05:29:47;;;;;;;6.17;4.80;;;15.20;99.90;;;;;;5011385;28;20175;-61
2021/08/23 05:32:16;;;;;;;5.10;4.70;;;15.30;99.90;;;;;;5011548;28;20206;-61
2021/08/23 05:34:44;;;;;;;5.30;4.90;;;15.40;99.90;;;;;;5015313;28;20189;-60
2021/08/23 05:37:11;;;;;;;5.10;4.70;;;15.60;99.90;;;;;;5015291;28;20517;-61
2021/08/23 05:39:36;;;;;;;5.00;4.60;;;15.70;99.90;;;;;;5014942;28;20480;-60
2021/08/23 05:42:02;;;;;;;4.53;4.13;;;15.70;99.90;;;;;;5015042;28;20441;-61
2021/08/23 05:44:28;;;;;;;4.83;4.30;;;15.70;99.90;;;;;;5015094;28;20179;-61
2021/08/23 05:46:53;;;;;;;5.87;4.77;;;15.70;99.90;;;;;;5015132;28;20213;-60
2021/08/23 05:49:19;;;;;;;6.17;4.57;;;15.80;99.90;;;;;;5014812;28;20178;-60
2021/08/23 05:51:44;;;;;;;5.53;5.03;;;15.90;99.90;;;;;;5014841;28;20203;-61
2021/08/23 05:54:10;;;;;;;5.77;4.63;;;15.90;99.90;;;;;;5014987;28;20167;-60
2021/08/23 05:56:40;;;;;;;9.27;4.43;;;15.90;99.90;;;;;;5014876;28;20409;-59
2021/08/23 05:59:07;;;;;;;6.67;4.17;;;16.00;99.90;;;;;;5014631;28;20163;-61
2021/08/23 06:01:32;;;;;;;4.70;4.20;;;15.90;99.90;;;;;;5014642;28;20509;-61
2021/08/23 06:03:57;;;;;;;4.70;4.30;;;15.90;99.90;;;;;;5014806;28;20985;-61
2021/08/23 06:06:23;;;;;;;8.10;5.10;;;15.90;99.90;;;;;;5014682;28;20179;-60
2021/08/23 06:08:48;;;;;;;7.60;4.20;;;15.90;99.90;;;;;;5014434;28;20179;-60
2021/08/23 06:11:14;;;;;;;6.73;5.80;;;16.00;99.90;;;;;;5014551;28;20202;-61
2021/08/23 06:13:39;;;;;;;6.60;5.87;;;16.00;99.90;;;;;;5014535;28;20190;-61
2021/08/23 06:16:05;;;;;;;8.27;4.93;;;16.00;99.90;;;;;;5014527;28;20167;-60
2021/08/23 06:18:30;;;;;;;6.07;4.80;;;16.10;99.90;;;;;;5014203;28;20655;-61
2021/08/23 06:20:59;;;;;;;4.63;4.23;;;16.20;99.90;;;;;;5014336;28;20175;-60
2021/08/23 06:23:25;;;;;;;6.23;5.57;;;16.40;99.90;;;;;;5014321;28;20187;-61
2021/08/23 06:25:50;;;;;;;5.60;5.10;;;16.40;99.90;;;;;;5014420;28;20737;-61
2021/08/23 06:28:17;;;;;;;7.10;6.40;;;16.40;99.90;;;;;;5014356;28;20163;-60
2021/08/23 06:30:43;;;;;;;7.07;5.53;;;16.40;99.90;;;;;;5014030;28;20163;-61
2021/08/23 06:33:09;;;;;;;5.13;4.73;;;16.40;99.90;;;;;;5014162;28;20900;-61
2021/08/23 06:35:34;;;;;;;7.47;4.60;;;16.60;99.90;;;;;;5014132;28;20175;-60
2021/08/23 06:37:59;;;;;;;10.53;5.57;;;16.70;99.90;;;;;;5014036;28;20598;-61
2021/08/23 06:40:25;;;;;;;5.87;4.33;;;17.00;99.90;;;;;;5013942;28;20179;-61
2021/08/23 06:42:50;;;;;;;9.97;5.90;;;17.20;99.90;;;;;;5013957;28;20245;-61
2021/08/23 06:45:16;;;;;;;6.37;4.57;;;17.40;99.90;;;;;;5012989;28;20171;-60
2021/08/23 06:47:41;;;;;;;5.40;4.50;;;17.50;99.90;;;;;;5014033;28;20171;-61
2021/08/23 06:50:07;;;;;;;4.53;4.13;;;17.50;99.90;;;;;;5013558;28;20381;-61
2021/08/23 06:52:33;;;;;;;5.57;4.70;;;17.60;99.90;;;;;;5013756;28;20268;-61
2021/08/23 06:54:59;;;;;;;5.90;4.30;;;17.60;99.90;;;;;;5013812;28;20452;-61
2021/08/23 06:57:24;;;;;;;4.23;3.87;;;17.60;99.90;;;;;;5013746;28;20176;-61
2021/08/23 06:59:50;;;;;;;7.67;6.83;;;17.70;99.90;;;;;;5013469;28;20175;-61
2021/08/23 07:02:16;;;;;;;6.97;4.90;;;17.80;99.90;;;;;;5013606;28;20551;-59
2021/08/23 07:04:41;;;;;;;8.30;4.43;;;17.90;99.90;;;;;;5013590;28;20182;-60
2021/08/23 07:07:07;;;;;;;4.60;4.17;;;18.00;99.90;;;;;;5013556;28;20178;-60
2021/08/23 07:09:32;;;;;;;5.30;4.03;;;18.10;99.90;;;;;;5013460;28;20175;-61
2021/08/23 07:11:58;;;;;;;7.63;4.30;;;18.20;99.90;;;;;;5012127;28;20216;-61
2021/08/23 07:14:23;;;;;;;4.90;4.20;;;18.30;99.90;;;;;;5013378;28;20242;-61
2021/08/23 07:16:49;;;;;;;6.43;5.83;;;18.30;99.90;;;;;;5013442;28;20175;-61
2021/08/23 07:19:14;;;;;;;4.90;4.40;;;18.30;99.90;;;;;;5013145;28;20175;-61
2021/08/23 07:21:40;;;;;;;4.73;4.33;;;18.10;99.90;;;;;;5013134;28;20195;-61
2021/08/23 07:24:09;;;;;;;6.63;4.90;;;18.10;99.90;;;;;;5013204;28;20633;-61
2021/08/23 07:26:35;;;;;;;5.67;4.60;;;18.10;99.90;;;;;;5013435;28;20199;-61
2021/08/23 07:29:00;;;;;;;4.90;4.00;;;18.20;99.90;;;;;;5012939;28;20422;-61
2021/08/23 07:31:26;;;;;;;5.67;4.00;;;18.40;99.90;;;;;;5012978;28;20423;-60
2021/08/23 07:33:51;;;;;;;7.07;5.70;;;18.60;99.90;;;;;;5013055;28;20171;-60
2021/08/23 07:36:17;;;;;;;8.00;6.70;;;18.90;99.90;;;;;;5012994;28;20203;-60
2021/08/23 07:38:42;;;;;;;6.73;5.70;;;19.20;99.90;;;;;;5012682;28;20178;-60
2021/08/23 07:41:08;;;;;;;5.07;3.93;;;19.60;99.90;;;;;;5012982;28;20232;-61
2021/08/23 07:43:33;;;;;;;6.77;4.03;;;20.00;99.90;;;;;;5012833;28;20195;-61
2021/08/23 07:45:59;;;;;;;4.67;4.13;;;20.20;99.90;;;;;;5012891;28;20236;-61
2021/08/23 07:48:24;;;;;;;3.50;3.20;;;20.40;99.90;;;;;;5012658;28;20254;-61
2021/08/23 07:50:50;;;;;;;4.13;3.73;;;20.80;99.90;;;;;;5012607;28;20189;-60
2021/08/23 07:53:16;;;;;;;4.97;3.20;;;20.80;99.90;;;;;;5012706;28;20190;-61
2021/08/23 07:55:42;;;;;;;7.87;4.47;;;20.30;99.90;;;;;;5011201;28;20190;-60
2021/08/23 07:58:07;;;;;;;4.53;3.50;;;20.10;99.90;;;;;;5012651;28;20414;-61
2021/08/23 08:00:33;;;;;;;4.57;4.10;;;20.20;99.90;;;;;;5012365;28;20167;-62
2021/08/23 08:02:59;;;;;;;4.17;3.77;;;20.20;99.90;;;;;;5012524;28;20216;-61
2021/08/23 08:05:24;;;;;;;5.60;4.27;;;20.40;99.90;;;;;;5012525;28;20202;-61
2021/08/23 08:07:50;;;;;;;4.10;3.50;;;20.40;99.90;;;;;;5012511;28;20229;-62
2021/08/23 08:10:15;;;;;;;12.03;8.53;;;20.20;99.90;;;;;;5010964;28;20190;-61
2021/08/23 08:12:42;;;;;;;6.50;5.47;;;20.20;99.90;;;;;;5012379;28;20308;-60
2021/08/23 08:15:09;;;;;;;4.63;3.47;;;20.20;99.90;;;;;;5012466;28;20194;-61
2021/08/23 08:17:34;;;;;;;4.30;3.70;;;20.40;99.90;;;;;;5012514;28;20413;-60
2021/08/23 08:20:00;;;;;;;4.27;3.43;;;20.70;99.90;;;;;;5012089;28;20414;-59
2021/08/23 08:22:26;;;;;;;3.63;3.30;;;20.90;99.90;;;;;;5012285;28;20194;-61
2021/08/23 08:24:51;;;;;;;5.50;3.87;;;20.50;99.90;;;;;;5012361;28;20171;-61
2021/08/23 08:27:17;;;;;;;4.17;3.77;;;20.50;99.90;;;;;;5012330;28;20178;-61
2021/08/23 08:29:42;;;;;;;4.90;3.93;;;20.90;99.90;;;;;;5012003;28;20206;-61
2021/08/23 08:32:08;;;;;;;5.20;3.73;;;21.30;99.90;;;;;;5012121;28;20207;-60
2021/08/23 08:34:34;;;;;;;4.03;3.63;;;21.60;99.90;;;;;;5012168;28;20256;-61
2021/08/23 08:37:00;;;;;;;3.90;3.13;;;21.50;99.90;;;;;;5012153;28;20297;-60
2021/08/23 08:39:25;;;;;;;4.80;3.90;;;21.60;99.90;;;;;;5011965;28;20962;-61
2021/08/23 08:41:51;;;;;;;4.10;3.53;;;21.40;99.90;;;;;;5012108;28;20190;-61
2021/08/23 08:44:17;;;;;;;4.20;3.90;;;21.40;99.90;;;;;;5012057;28;20174;-61
2021/08/23 08:46:43;;;;;;;7.47;4.13;;;21.20;99.90;;;;;;5010917;28;20671;-61
2021/08/23 08:49:11;;;;;;;3.57;3.30;;;21.00;99.90;;;;;;5012237;28;20171;-61
2021/08/23 08:51:38;;;;;;;16.30;9.00;;;20.90;99.90;;;;;;5011255;28;20453;-61
2021/08/23 08:54:04;;;;;;;4.83;3.20;;;20.80;99.90;;;;;;5012141;28;20426;-60
2021/08/23 08:56:32;;;;;;;6.80;3.43;;;20.70;99.90;;;;;;5012083;28;20421;-62
2021/08/23 08:58:58;;;;;;;3.70;3.40;;;20.60;99.90;;;;;;5011715;28;20508;-61
2021/08/23 09:01:23;;;;;;;3.20;2.70;;;20.50;99.90;;;;;;5011851;28;20541;-61
2021/08/23 09:03:49;;;;;;;3.47;3.17;;;20.70;99.90;;;;;;5011870;28;20438;-62
2021/08/23 09:06:14;;;;;;;4.20;3.53;;;20.90;99.90;;;;;;5011960;28;20210;-61
2021/08/23 09:08:46;;;;;;;3.50;3.20;;;21.20;99.90;;;;;;5013881;28;20209;-60
2021/08/23 09:11:13;;;;;;;4.50;3.80;;;21.30;99.90;;;;;;5015863;28;20202;-61
2021/08/23 09:13:40;;;;;;;4.80;3.30;;;21.40;99.90;;;;;;5015596;28;20453;-60
2021/08/23 09:16:06;;;;;;;4.97;4.33;;;21.40;99.90;;;;;;5015669;28;20782;-59
2021/08/23 09:18:32;;;;;;;3.50;3.20;;;21.20;99.90;;;;;;5015256;28;20762;-61
2021/08/23 09:21:03;;;;;;;4.03;3.73;;;21.10;99.90;;;;;;5015443;28;20444;-61
2021/08/23 09:23:47;;;;;;;6.10;3.57;;;21.00;99.90;;;;;;5015537;28;20182;-61
2021/08/23 09:26:16;;;;;;;3.57;3.27;;;20.70;99.90;;;;;;5015993;28;20523;-60
2021/08/23 09:28:54;;;;;;;3.83;3.30;;;20.40;99.90;;;;;;5015054;28;20508;-61
2021/08/23 09:31:27;;;;;;;5.50;3.67;;;20.30;99.90;;;;;;5015258;28;20958;-61
2021/08/23 09:33:58;;;;;;;3.90;3.60;;;20.30;99.90;;;;;;5015402;28;20440;-62
2021/08/23 09:36:24;;;;;;;4.50;3.87;;;20.30;99.90;;;;;;5015418;28;20413;-61
2021/08/23 09:39:03;;;;;;;5.30;3.97;;;20.10;99.90;;;;;;5014965;28;20425;-61
2021/08/23 09:41:31;;;;;;;3.90;3.57;;;20.20;99.90;;;;;;5015155;28;20189;-61
2021/08/23 09:44:02;;;;;;;8.93;6.10;;;20.20;99.90;;;;;;5015121;28;20432;-61
2021/08/23 09:46:28;;;;;;;5.70;5.20;;;20.40;99.90;;;;;;5015218;28;20425;-61
2021/08/23 09:48:54;;;;;;;5.40;3.80;;;20.80;99.90;;;;;;5014848;28;20449;-61
2021/08/23 09:51:28;;;;;;;4.73;4.03;;;21.20;99.90;;;;;;5014251;28;20960;-61
2021/08/23 09:54:11;;;;;;;3.30;3.10;;;21.60;99.90;;;;;;5015071;28;20424;-61
2021/08/23 09:56:47;;;;;;;5.03;3.57;;;21.60;99.90;;;;;;5015002;28;20410;-62
2021/08/23 09:59:15;;;;;;;4.63;4.20;;;22.00;99.90;;;;;;5014579;28;20410;-61
2021/08/23 10:04:10;;;;;;;6.80;3.20;;;22.00;99.90;;;;;;5011805;28;20549;-63
2021/08/23 10:06:38;;;;;;;4.80;3.57;;;22.00;99.90;;;;;;5014740;28;20418;-63
2021/08/23 10:09:05;;;;;;;3.60;3.20;;;21.80;99.90;;;;;;5014409;28;20418;-63
2021/08/23 10:11:32;;;;;;;3.50;3.20;;;21.70;99.90;;;;;;5014601;28;20450;-63
2021/08/23 10:13:59;;;;;;;3.73;2.90;;;21.90;99.90;;;;;;5014414;28;20873;-63
2021/08/23 10:16:25;;;;;;;3.77;3.47;;;21.90;99.90;;;;;;5014486;28;20417;-64
2021/08/23 10:18:52;;;;;;;3.77;3.47;;;21.90;99.90;;;;;;5014137;28;20432;-63
2021/08/23 10:21:19;;;;;;;3.67;3.37;;;22.00;99.90;;;;;;5014474;28;20201;-63
2021/08/23 10:23:47;;;;;;;4.63;3.33;;;22.20;99.90;;;;;;5014495;28;20520;-63
2021/08/23 10:26:12;;;;;;;3.70;3.40;;;22.30;99.90;;;;;;5014378;28;20539;-63
2021/08/23 10:28:38;;;;;;;3.60;3.30;;;22.50;99.90;;;;;;5014060;28;20572;-63
2021/08/23 10:31:10;;;;;;;4.70;4.30;;;23.40;99.90;;;;;;5014110;28;20262;-63
2021/08/23 10:33:37;;;;;;;4.23;3.60;;;23.80;99.90;;;;;;5014178;28;20187;-63
2021/08/23 10:36:06;;;;;;;3.87;3.20;;;23.80;99.90;;;;;;5014367;28;20410;-63
2021/08/23 10:38:32;;;;;;;9.90;3.77;;;23.90;99.90;;;;;;5013886;28;20888;-64
2021/08/23 10:41:11;;;;;;;4.43;4.10;;;23.60;99.90;;;;;;5014159;28;20414;-63
2021/08/23 10:43:51;;;;;;;5.13;4.10;;;23.80;99.90;;;;;;5013882;28;20461;-63
2021/08/23 10:46:22;;;;;;;4.30;3.90;;;24.00;99.90;;;;;;5014113;28;20414;-63
2021/08/23 10:48:48;;;;;;;4.93;4.50;;;23.80;99.90;;;;;;5013638;28;20441;-64
2021/08/23 10:51:36;;;;;;;4.00;3.70;;;22.80;99.90;;;;;;5013783;28;21012;-63
2021/08/23 10:54:03;;;;;;;6.93;4.10;;;22.30;99.90;;;;;;5013809;28;20480;-63
2021/08/23 10:56:40;;;;;;;5.00;4.57;;;21.80;99.90;;;;;;5012480;28;20468;-63
2021/08/23 10:59:14;;;;;;;6.90;4.73;;;21.40;99.90;;;;;;5013518;28;20419;-63
2021/08/23 11:01:40;;;;;;;3.93;3.63;;;21.00;99.90;;;;;;5013607;28;20500;-63
2021/08/23 11:04:07;;;;;;;4.50;4.10;;;20.80;99.90;;;;;;5013557;28;20525;-63
2021/08/23 11:06:33;;;;;;;4.90;3.87;;;20.60;99.90;;;;;;5013507;28;20418;-64
2021/08/23 11:09:10;;;;;;;4.60;4.10;;;20.70;99.90;;;;;;5013283;28;20422;-63
2021/08/23 11:11:37;;;;;;;5.50;5.07;;;20.80;99.90;;;;;;5013437;28;20449;-63
2021/08/23 11:14:15;;;;;;;4.40;4.00;;;21.40;99.90;;;;;;5013357;28;20457;-63
2021/08/23 11:16:41;;;;;;;3.90;3.60;;;24.20;99.90;;;;;;5013485;28;20418;-64
2021/08/23 11:19:07;;;;;;;3.60;2.87;;;26.80;99.90;;;;;;5012931;28;20947;-63
2021/08/23 11:21:33;;;;;;;7.50;4.33;;;26.70;99.90;;;;;;5013374;28;20938;-63
2021/08/23 11:24:06;;;;;;;4.93;4.53;;;25.60;99.90;;;;;;5013245;28;20476;-63
2021/08/23 11:26:31;;;;;;;3.53;3.33;;;24.00;99.90;;;;;;5013306;28;20709;-63
2021/08/23 11:29:09;;;;;;;5.43;3.33;;;22.80;99.90;;;;;;5012834;28;20572;-63
2021/08/23 11:31:36;;;;;;;4.80;3.53;;;22.00;99.90;;;;;;5012578;28;20190;-63
2021/08/23 11:34:05;;;;;;;4.70;3.87;;;21.50;99.90;;;;;;5013019;28;20528;-64
2021/08/23 11:36:33;;;;;;;3.73;3.30;;;21.30;99.90;;;;;;5013046;28;20414;-63
2021/08/23 11:38:58;;;;;;;4.20;3.80;;;21.20;99.90;;;;;;5012730;28;20414;-64
2021/08/23 11:41:24;;;;;;;3.37;3.17;;;21.10;99.90;;;;;;5011708;28;20856;-63
2021/08/23 11:43:49;;;;;;;3.77;3.47;;;21.10;99.90;;;;;;5012929;28;20285;-63
2021/08/23 11:46:15;;;;;;;4.67;3.63;;;21.20;99.90;;;;;;5012749;28;20178;-64
2021/08/23 11:48:42;;;;;;;2.80;2.60;;;22.10;99.90;;;;;;5012583;28;20185;-64
2021/08/23 11:51:08;;;;;;;2.67;2.33;;;24.80;99.90;;;;;;5012994;28;20233;-63
2021/08/23 11:53:34;;;;;;;2.80;2.60;;;28.20;99.90;;;;;;5013024;28;20951;-64
2021/08/23 11:56:09;;;;;;;3.60;3.30;;;30.70;99.90;;;;;;5013292;28;20618;-63
2021/08/23 11:58:39;;;;;;;2.70;2.50;;;33.20;95.60;;;;;;5012355;28;20452;-61
2021/08/23 12:01:07;;;;;;;2.40;2.30;;;33.90;91.20;;;;;;5012643;28;20910;-62
2021/08/23 12:03:33;;;;;;;3.53;3.23;;;32.80;90.20;;;;;;5012481;28;20610;-61
2021/08/23 12:06:11;;;;;;;3.50;3.20;;;30.50;91.50;;;;;;5012635;28;20422;-61
2021/08/23 12:08:40;;;;;;;3.13;2.83;;;28.40;93.90;;;;;;5012313;28;20425;-61
2021/08/23 12:11:17;;;;;;;3.60;2.77;;;26.80;96.50;;;;;;5011157;28;20457;-61
2021/08/23 12:13:47;;;;;;;3.03;2.83;;;25.70;99.30;;;;;;5012373;28;20611;-61
2021/08/23 12:16:15;;;;;;;3.30;2.50;;;25.60;99.90;;;;;;5012760;28;20421;-61
2021/08/23 12:18:42;;;;;;;3.80;2.63;;;26.00;99.90;;;;;;5012181;28;20421;-61
2021/08/23 12:21:19;;;;;;;2.63;2.17;;;25.70;99.90;;;;;;5012419;28;20785;-61
2021/08/23 12:24:00;;;;;;;2.60;2.40;;;25.40;99.90;;;;;;5012351;28;20446;-61
2021/08/23 12:26:27;;;;;;;2.67;2.47;;;24.90;99.90;;;;;;5012392;28;20903;-63
2021/08/23 12:28:59;;;;;;;3.23;2.73;;;25.30;99.90;;;;;;5011974;28;20426;-63
2021/08/23 12:31:24;;;;;;;3.60;2.63;;;25.50;99.90;;;;;;5012199;28;20587;-63
2021/08/23 12:33:50;;;;;;;2.60;2.40;;;25.20;99.90;;;;;;5012184;28;20899;-63
2021/08/23 12:36:16;;;;;;;2.30;2.10;;;25.70;99.90;;;;;;5012146;28;20640;-63
2021/08/23 12:38:43;;;;;;;6.33;2.93;;;28.30;99.60;;;;;;5011967;28;20203;-63
2021/08/23 12:41:10;;;;;;;2.13;1.93;;;28.70;96.90;;;;;;5012205;28;20260;-63
2021/08/23 12:43:36;;;;;;;2.23;2.10;;;28.80;97.20;;;;;;5014412;28;20482;-63
2021/08/23 12:46:03;;;;;;;2.77;2.53;;;29.10;96.00;;;;;;5016157;28;20418;-63
2021/08/23 12:48:29;;;;;;;2.73;2.50;;;28.00;96.70;;;;;;5015871;28;20981;-63